Corning, CA

9:51 AM PST en Diciembre 06, 2016 (GMT -0800)
Corning Road | | Change Station
Aviso en curso: Freeze Watch

Alt 364 ft 39.93 °N, 122.28 °W | Updated 5 minutes ago

Mostly Cloudy
Muy nublado
34.9 ° F
Sensación térmica 35 ° F
N
1.9
Viento Variable Viento desde ESE
Gusts 4.3 mph

Hoy
Alta -- | Baja -- ° F
--% Posibilidad de precipitaciones
Ayer
Alta -- | Baja -- ° F
Precip. -- pul
Presión 30.07 pul
Visibilidad 10.0 Millas
Nubes Muy nublado 8000 ft
Vientos helados 35 ° F
Punto de rocío 34 ° F
Humedad 98%
Precipitaciones 0.00 pul
Espesor de la nieve No disponible.
7:16 AM 4:43 PM
Creciente, 43% visible
METAR KRBL 061654Z AUTO VRB03KT 10SM BKN080 02/M01 A3006 RMK AO2 SLP181 T00221011
Presión 30.07 pul
Visibilidad 10.0 Millas
Nubes Muy nublado 8000 ft
Vientos helados 35 ° F
Punto de rocío 34 ° F
Humedad 98%
Precipitaciones 0.00 pul
Espesor de la nieve No disponible.
7:16 AM 4:43 PM
Creciente, 43% visible
METAR KRBL 061654Z AUTO VRB03KT 10SM BKN080 02/M01 A3006 RMK AO2 SLP181 T00221011

10-Day Weather Forecast

Almanac

Astronomía

Dec. 06, 2016 Salida Puesta
Hora real
Crepúsculo civil
Crepúsculo náutico
Crepúsculo astronómico
Luna
Horas de luz
Horas de luz
Tomorrow will be .
, % of the Moon is Illuminated

Extremos de hoy

Máximos del estado Bajos del estado

Community

WunderPhotos

Upload Photos

1,955,986 ¡fotos cargadas!

WunderBlog® & News

Nearby

Calidad del aire

  Calidad del aire Índice AQ Contaminante
Not available.

Grosos de nieve

Estación Profundido Altura

Actividad de terremotos

Ciudad Distance Mag. Tiempo y dato
Magnitud mínima muestra es 2,5.

Temperaturas de aguas costeras

Lugar Temperatura

Stations

Estaciones meteorológicas cercanas

Ubicación de la estación Temp. Vientos helados Punto de rocío Humedad Viento Precip. Alt Actualizado Tipo
                   

Watches & Warnings

Freeze Watch
Issued: 7:15 AM PST Dec. 6, 2016 – National Weather Service

... Freeze watch remains in effect from late tonight through
Wednesday morning...

* temperature... 28 to 32 degrees possible late Tuesday night
into Wednesday morning.

* Impacts... temperatures this cold may damage plants and pipes
if left unprotected.

Precautionary/preparedness actions...

A freeze watch means sub-freezing temperatures are possible.
These conditions could kill crops and other sensitive vegetation.
Take precautions to protect exposed pipes, pets, and livestock.


Interact with US via social media
www.Facebook.Com/NWS.Sacramento
www.Twitter.Com/nwssacramento